Time;durP1;ratioP1;P1;durP2;ratioP2;P2;SDS_P1;SDS_P2;PMS_P1;PMS_P2;Temp;Humidity;BMP_temperature;BMP_pressure;BME280_temperature;BME280_humidity;BME280_pressure;Samples;Min_cycle;Max_cycle;Signal;HPM_P1;HPM_P2
2023/10/10 00:01:14;;;;;;;8.48;4.45;;;;;;;15.83;93.92;102191.53;4976018;28;96779;-28
2023/10/10 00:03:42;;;;;;;10.07;4.82;;;;;;;15.83;94.05;102191.53;4975609;28;101567;-28
2023/10/10 00:06:13;;;;;;;9.85;4.45;;;;;;;15.81;94.15;102185.28;4975749;28;101012;-28
2023/10/10 00:08:43;;;;;;;13.48;4.45;;;;;;;15.86;94.45;102196.81;4977089;28;96662;-27
2023/10/10 00:11:12;;;;;;;11.80;5.40;;;;;;;15.87;94.58;102204.03;4975696;28;96757;-28
2023/10/10 00:13:46;;;;;;;10.50;5.32;;;;;;;15.82;94.51;102186.16;4976162;28;97996;-28
2023/10/10 00:16:19;;;;;;;9.85;4.70;;;;;;;15.89;94.46;102203.94;4975280;28;101410;-29
2023/10/10 00:18:49;;;;;;;9.32;5.25;;;;;;;15.85;94.76;102192.31;4975538;28;96622;-28
2023/10/10 00:21:23;;;;;;;12.32;5.13;;;;;;;15.86;94.60;102190.47;4975498;28;96815;-28
2023/10/10 00:23:49;;;;;;;8.60;4.40;;;;;;;15.83;94.96;102191.53;4975233;28;100989;-27
2023/10/10 00:26:19;;;;;;;9.35;4.78;;;;;;;15.80;94.65;102180.81;4975118;28;99151;-28
2023/10/10 00:28:45;;;;;;;13.13;4.70;;;;;;;15.81;94.84;102188.03;4975356;28;96570;-29
2023/10/10 00:31:15;;;;;;;12.25;5.68;;;;;;;15.83;94.48;102190.66;4977099;28;96903;-27
2023/10/10 00:33:41;;;;;;;10.60;4.78;;;;;;;15.78;94.58;102181.84;4975025;28;101103;-27
2023/10/10 00:36:12;;;;;;;8.80;4.65;;;;;;;15.74;94.68;102183.91;4976596;28;97316;-28
2023/10/10 00:38:38;;;;;;;11.63;5.72;;;;;;;15.78;94.86;102182.75;4976544;28;96813;-28
2023/10/10 00:41:07;;;;;;;9.32;4.95;;;;;;;15.77;95.21;102185.56;4975141;28;96960;-28
2023/10/10 00:43:33;;;;;;;10.10;5.00;;;;;;;15.76;94.90;102183.81;4974752;28;100914;-27
2023/10/10 00:46:04;;;;;;;12.02;5.50;;;;;;;15.76;94.96;102184.69;4975208;28;99102;-28
2023/10/10 00:48:32;;;;;;;11.55;5.80;;;;;;;15.73;95.39;102170.34;4975189;28;96626;-28
2023/10/10 00:51:07;;;;;;;13.10;5.03;;;;;;;15.69;95.08;102167.75;4975045;28;96843;-27
2023/10/10 00:53:34;;;;;;;11.45;5.13;;;;;;;15.67;95.29;102168.84;4974712;28;101014;-28
2023/10/10 00:56:00;;;;;;;10.07;5.30;;;;;;;15.69;94.93;102172.34;4975059;28;101263;-28
2023/10/10 00:58:35;;;;;;;9.65;5.07;;;;;;;15.67;95.37;102168.84;4974590;28;96822;-28
2023/10/10 01:01:14;;;;;;;11.40;5.53;;;;;;;15.66;94.86;102169.78;4976636;28;96706;-27
2023/10/10 01:03:42;;;;;;;12.60;5.22;;;;;;;15.66;95.12;102172.53;4975386;28;99621;-27
2023/10/10 01:06:24;;;;;;;10.82;5.57;;;;;;;15.63;95.32;102168.13;4975940;28;97889;-27
2023/10/10 01:09:20;;;;;;;9.10;4.85;;;;;;;15.58;95.29;102153.88;4974553;28;96753;-28
2023/10/10 01:11:48;;;;;;;8.60;4.85;;;;;;;15.57;95.35;102146.69;4975992;28;96861;-28
2023/10/10 01:14:18;;;;;;;8.40;4.43;;;;;;;15.61;95.58;102159.19;4975856;28;97931;-28
2023/10/10 01:16:47;;;;;;;10.05;5.35;;;;;;;15.57;95.53;102143.06;4976213;28;97280;-27
2023/10/10 01:19:18;;;;;;;12.38;4.97;;;;;;;15.56;95.59;102147.63;4974402;28;96660;-28
2023/10/10 01:21:50;;;;;;;12.93;5.25;;;;;;;15.55;95.68;102145.88;4976593;28;96525;-27
2023/10/10 01:24:18;;;;;;;8.80;5.28;;;;;;;15.57;95.92;102154.88;4974223;28;101061;-28
2023/10/10 01:26:45;;;;;;;8.57;4.68;;;;;;;15.58;96.10;102148.44;4975649;28;97799;-29
2023/10/10 01:31:46;;;;;;;10.32;5.63;;;;;;;15.60;96.59;102142.88;4975766;28;96775;-27
2023/10/10 01:34:30;;;;;;;10.52;5.13;;;;;;;15.60;97.00;102143.75;4975441;28;99335;-28
2023/10/10 01:37:18;;;;;;;9.88;5.43;;;;;;;15.60;96.78;102138.28;4975786;28;97985;-28
2023/10/10 01:39:54;;;;;;;9.93;5.13;;;;;;;15.63;96.59;102137.22;4975853;28;96670;-27
2023/10/10 01:42:30;;;;;;;13.68;5.93;;;;;;;15.63;96.86;102138.09;4974359;28;96863;-27
2023/10/10 01:44:56;;;;;;;10.38;5.60;;;;;;;15.63;96.94;102132.63;4973259;28;100947;-27
2023/10/10 01:47:34;;;;;;;10.18;5.75;;;;;;;15.61;97.10;102130.97;4975649;28;98690;-29
2023/10/10 01:50:01;;;;;;;10.48;5.57;;;;;;;15.61;97.16;102128.22;4974137;28;96734;-28
2023/10/10 01:52:27;;;;;;;13.18;5.45;;;;;;;15.61;97.27;102129.13;4974256;28;96975;-27
2023/10/10 01:54:53;;;;;;;13.60;5.75;;;;;;;15.63;97.16;102127.16;4973304;28;101298;-28
2023/10/10 01:57:22;;;;;;;14.23;6.00;;;;;;;15.59;96.96;102122.88;4973172;28;99104;-29
2023/10/10 01:59:48;;;;;;;10.25;6.13;;;;;;;15.57;97.25;102121.22;4975432;28;96657;-27
2023/10/10 02:02:16;;;;;;;11.13;5.72;;;;;;;15.59;97.00;102117.44;4974067;28;96896;-28
2023/10/10 02:04:42;;;;;;;17.00;7.03;;;;;;;15.60;96.75;102112.84;4973577;28;101003;-27
2023/10/10 02:07:14;;;;;;;11.48;6.65;;;;;;;15.56;97.16;102114.00;4973481;28;101246;-27
2023/10/10 02:09:40;;;;;;;12.93;6.30;;;;;;;15.56;97.27;102106.66;4974060;28;96610;-28
2023/10/10 02:12:15;;;;;;;12.93;6.95;;;;;;;15.57;97.44;102108.44;4975505;28;96824;-27
2023/10/10 02:14:44;;;;;;;10.77;6.40;;;;;;;15.60;97.35;102105.50;4973613;28;101692;-27
2023/10/10 02:17:26;;;;;;;13.88;6.78;;;;;;;15.56;97.82;102106.66;4973389;28;101131;-27
2023/10/10 02:19:59;;;;;;;;;;;;;;;15.57;98.44;102104.84;4975252;28;96681;-29
2023/10/10 02:27:56;;;;;;;15.15;7.60;;;;;;;15.58;98.40;102112.91;4974513;28;97882;-28
2023/10/10 02:30:35;;;;;;;16.42;7.93;;;;;;;15.57;98.30;102102.97;4974915;28;97126;-28
2023/10/10 02:35:54;;;;;;;15.32;8.05;;;;;;;15.59;98.37;102100.13;4973961;28;98422;-27
2023/10/10 02:38:33;;;;;;;15.43;7.20;;;;;;;15.58;98.22;102099.25;4973530;28;101152;-27
2023/10/10 02:44:09;;;;;;;15.00;7.53;;;;;;;15.52;98.53;102088.75;4973645;28;96903;-30
2023/10/10 02:46:39;;;;;;;13.93;7.47;;;;;;;15.53;98.10;102079.56;4973524;28;99411;-30
2023/10/10 02:49:22;;;;;;;13.60;7.47;;;;;;;15.51;98.74;102085.09;4974438;28;99733;-27
2023/10/10 02:51:48;;;;;;;14.15;7.90;;;;;;;15.43;99.33;102068.34;4973484;28;96593;-28
2023/10/10 02:56:50;;;;;;;13.68;6.43;;;;;;;15.45;99.05;102077.31;4974083;28;98018;-27
2023/10/10 02:59:22;;;;;;;17.00;7.32;;;;;;;15.46;99.25;102083.66;4973043;28;101303;-27
2023/10/10 03:01:57;;;;;;;;;;;;;;;15.48;99.30;102092.63;4973789;28;96734;-28
2023/10/10 03:04:52;;;;;;;13.75;6.03;;;;;;;15.44;98.84;102082.84;4973973;28;96742;-28
2023/10/10 03:07:09;;;;;;;13.80;7.47;;;;;;;15.45;98.43;102088.25;4973944;28;98760;-28
2023/10/10 03:09:42;;;;;;;17.23;7.72;;;;;;;15.44;98.67;102088.31;4976178;28;99303;-28
2023/10/10 03:12:17;;;;;;;12.95;7.07;;;;;;;15.39;98.45;102079.53;4977761;28;96554;-28
2023/10/10 03:14:44;;;;;;;14.68;7.45;;;;;;;15.41;98.41;102085.78;4976893;28;96715;-28
2023/10/10 03:20:13;;;;;;;13.15;6.75;;;;;;;15.35;98.42;102069.78;4978142;28;97010;-28
2023/10/10 03:25:28;;;;;;;11.98;7.28;;;;;;;15.36;98.88;102072.41;4978202;28;96916;-28
2023/10/10 03:27:54;;;;;;;;;;;;;;;15.32;99.34;102075.44;4976651;28;100893;-28
2023/10/10 03:30:34;;;;;;;10.77;5.88;;;;;;;15.30;99.13;102067.34;4976476;28;100754;-28
2023/10/10 03:33:08;;;;;;;14.27;7.22;;;;;;;15.25;99.81;102067.66;4976567;28;96760;-28
2023/10/10 03:35:52;;;;;;;12.32;6.63;;;;;;;15.26;99.67;102071.25;4977832;28;96671;-28
2023/10/10 05:25:24;;;;;;;12.65;7.20;;;;;;;14.93;99.08;101976.84;4976304;28;96629;-28
2023/10/10 05:27:51;;;;;;;13.90;7.55;;;;;;;14.96;98.73;101981.22;4975253;28;98089;-28
2023/10/10 05:30:23;;;;;;;19.48;8.30;;;;;;;14.90;98.57;101970.66;4973779;28;101090;-28
2023/10/10 05:33:00;;;;;;;15.27;7.03;;;;;;;14.93;99.15;101985.03;4974589;28;96627;-31
2023/10/10 05:35:37;;;;;;;14.68;8.20;;;;;;;14.94;98.82;101988.63;4975630;28;96741;-28
2023/10/10 05:38:07;;;;;;;13.25;6.72;;;;;;;14.89;99.04;101972.53;4974035;28;101106;-30
2023/10/10 05:40:33;;;;;;;18.80;8.05;;;;;;;14.87;98.65;101974.47;4975407;28;99315;-27
2023/10/10 05:43:15;;;;;;;13.75;7.32;;;;;;;14.89;99.06;101971.66;4976247;28;96439;-27
2023/10/10 05:45:45;;;;;;;17.60;7.78;;;;;;;14.94;99.02;101974.97;4975736;28;96751;-27
2023/10/10 05:48:11;;;;;;;15.98;7.53;;;;;;;14.91;98.68;101967.00;4973905;28;100892;-28
2023/10/10 05:50:37;;;;;;;17.92;8.18;;;;;;;14.91;98.62;101964.25;4974001;28;100787;-28
2023/10/10 05:53:06;;;;;;;16.25;7.18;;;;;;;14.89;98.54;101958.00;4972460;28;97008;-28
2023/10/10 05:55:33;;;;;;;17.63;8.18;;;;;;;14.85;98.21;101960.94;4971577;28;97037;-28
2023/10/10 05:58:02;;;;;;;19.17;7.50;;;;;;;14.88;98.48;101967.19;4971310;28;101107;-28
2023/10/10 06:00:28;;;;;;;15.60;7.38;;;;;;;14.83;98.45;101960.16;4971169;28;101144;-28
2023/10/10 06:02:53;;;;;;;17.60;8.25;;;;;;;14.82;98.43;101955.66;4973116;28;97037;-31
2023/10/10 06:05:18;;;;;;;17.90;8.52;;;;;;;14.82;98.57;101966.56;4973315;28;96940;-28
2023/10/10 06:07:44;;;;;;;16.15;7.43;;;;;;;14.77;99.22;101954.19;4971729;28;101101;-28
2023/10/10 06:10:16;;;;;;;15.57;7.80;;;;;;;14.74;99.10;101954.41;4975551;28;97270;-28
2023/10/10 06:12:48;;;;;;;14.88;7.43;;;;;;;14.78;99.18;101962.28;4973900;28;96665;-28
2023/10/10 06:15:18;;;;;;;16.02;8.23;;;;;;;14.75;99.14;101951.56;4973843;28;96849;-28
2023/10/10 06:17:57;;;;;;;15.18;7.82;;;;;;;14.76;99.08;101949.72;4973083;28;100986;-29
2023/10/10 06:20:23;;;;;;;18.25;8.50;;;;;;;14.78;99.26;101948.66;4975121;28;98250;-27
2023/10/10 06:22:49;;;;;;;16.55;7.97;;;;;;;14.79;99.23;101955.84;4973789;28;96631;-28
2023/10/10 06:25:18;;;;;;;16.67;8.80;;;;;;;14.83;98.80;101957.44;4975381;28;96809;-29
2023/10/10 06:27:45;;;;;;;20.98;8.75;;;;;;;14.82;99.17;101961.09;4974655;28;98008;-29
2023/10/10 06:30:17;;;;;;;17.33;7.38;;;;;;;14.79;98.51;101952.25;4973384;28;98851;-27
2023/10/10 06:32:48;;;;;;;17.55;8.38;;;;;;;14.84;98.78;101950.13;4975073;28;96578;-28
2023/10/10 06:37:51;;;;;;;19.55;8.13;;;;;;;14.78;98.86;101948.66;4974374;28;97933;-27
2023/10/10 06:40:28;;;;;;;12.57;7.22;;;;;;;14.78;99.16;101951.38;4973330;28;101035;-27
2023/10/10 06:42:57;;;;;;;22.65;8.35;;;;;;;14.83;98.91;101953.84;4974460;28;96778;-28
2023/10/10 06:45:31;;;;;;;20.90;8.65;;;;;;;14.82;99.33;101969.28;4973992;28;96868;-28
2023/10/10 06:47:56;;;;;;;19.55;8.00;;;;;;;14.84;99.25;101956.44;4956262;28;101482;-27
2023/10/10 06:50:21;;;;;;;19.13;8.73;;;;;;;14.86;99.03;101959.09;4972291;28;99428;-28
2023/10/10 06:52:54;;;;;;;21.52;8.63;;;;;;;14.88;98.89;101950.81;4973475;28;96631;-28
2023/10/10 06:55:23;;;;;;;21.85;9.45;;;;;;;14.82;99.36;101952.06;4974744;28;96696;-28
2023/10/10 06:57:57;;;;;;;17.48;7.47;;;;;;;14.79;99.34;101953.13;4973015;28;101540;-28
2023/10/10 07:02:58;;;;;;;;;;;;;;;14.93;99.41;101962.31;4974899;28;96727;-28
2023/10/10 07:05:27;;;;;;;10.23;6.28;;;;;;;14.86;98.97;101949.03;4975048;28;96806;-28
2023/10/10 07:07:59;;;;;;;16.75;8.50;;;;;;;14.90;99.39;101957.03;4972364;28;100973;-27
2023/10/10 07:10:33;;;;;;;15.35;8.23;;;;;;;14.89;100.00;101958.00;4972891;28;101366;-28
2023/10/10 07:12:59;;;;;;;20.77;9.10;;;;;;;14.86;99.51;101940.00;4973419;28;96570;-29
2023/10/10 07:15:25;;;;;;;17.58;9.75;;;;;;;14.96;99.38;101957.53;4973104;28;96853;-28
2023/10/10 07:18:04;;;;;;;22.10;10.07;;;;;;;14.96;100.00;101956.66;4972985;28;101490;-28
2023/10/10 07:23:20;;;;;;;18.70;8.95;;;;;;;15.02;99.76;101942.66;4975142;28;96506;-28
2023/10/10 07:25:57;;;;;;;18.88;10.55;;;;;;;15.02;99.80;101943.53;4973261;28;96820;-27
2023/10/10 07:28:25;;;;;;;18.83;8.73;;;;;;;15.10;99.83;101944.88;4974207;28;98068;-27
2023/10/10 07:30:51;;;;;;;20.48;8.77;;;;;;;15.11;99.95;101938.44;4974044;28;98002;-27
2023/10/10 07:33:22;;;;;;;20.55;10.35;;;;;;;15.16;99.54;101944.47;4973933;28;96628;-28
2023/10/10 07:35:53;;;;;;;17.47;8.83;;;;;;;15.18;99.37;101943.44;4974361;28;96928;-28
2023/10/10 07:38:27;;;;;;;21.48;10.32;;;;;;;15.26;98.91;101945.69;4972459;28;101779;-27
2023/10/10 07:40:53;;;;;;;22.55;10.55;;;;;;;15.33;98.55;101944.31;4973871;28;99230;-28
2023/10/10 07:43:26;;;;;;;19.55;9.95;;;;;;;15.36;98.53;101940.50;4972636;28;96819;-28
2023/10/10 07:45:54;;;;;;;16.83;9.65;;;;;;;15.38;98.19;101944.00;4973709;28;96917;-28
2023/10/10 07:48:39;;;;;;;21.10;10.75;;;;;;;15.38;98.58;101950.34;4972484;28;101384;-27
2023/10/10 07:51:06;;;;;;;25.92;10.52;;;;;;;15.45;98.62;101959.03;4974169;28;97886;-28
2023/10/10 07:53:44;;;;;;;20.15;9.88;;;;;;;15.51;98.25;101955.88;4972768;28;96583;-28
2023/10/10 07:56:10;;;;;;;20.83;10.20;;;;;;;15.52;98.20;101957.66;4977215;28;96581;-27
2023/10/10 07:58:49;;;;;;;16.90;9.55;;;;;;;15.50;97.74;101933.16;4975139;28;101181;-28
2023/10/10 08:01:17;;;;;;;18.48;10.57;;;;;;;15.65;97.39;101947.66;4975454;28;100768;-29
2023/10/10 08:03:44;;;;;;;20.77;9.93;;;;;;;15.69;97.48;101935.56;4975997;28;96690;-30
2023/10/10 08:06:11;;;;;;;20.17;10.68;;;;;;;15.81;97.22;101949.44;4975930;28;96862;-27
2023/10/10 08:08:36;;;;;;;20.50;9.43;;;;;;;15.89;97.35;101944.34;4975338;28;101440;-28
2023/10/10 08:11:12;;;;;;;26.80;10.15;;;;;;;16.03;96.71;101952.47;4977010;28;97653;-29
2023/10/10 08:13:39;;;;;;;19.15;10.25;;;;;;;16.04;96.24;101947.88;4977244;28;96628;-28
2023/10/10 08:16:04;;;;;;;17.92;9.70;;;;;;;16.13;96.57;101956.34;4975798;28;97005;-28
2023/10/10 08:21:10;;;;;;;20.23;9.88;;;;;;;16.17;96.38;101943.38;4975356;28;97465;-28
2023/10/10 08:23:36;;;;;;;21.55;10.48;;;;;;;16.28;95.49;101948.09;4974925;28;97621;-28
2023/10/10 08:26:02;;;;;;;22.10;11.18;;;;;;;16.30;96.09;101946.13;4976900;28;96797;-27
2023/10/10 08:28:28;;;;;;;20.38;10.63;;;;;;;16.36;95.66;101953.94;4975011;28;100844;-27
2023/10/10 08:30:53;;;;;;;20.38;10.18;;;;;;;16.45;95.83;101949.69;4976175;28;99643;-28
2023/10/10 08:33:19;;;;;;;17.17;9.32;;;;;;;16.43;95.69;101938.84;4976776;28;96585;-27
2023/10/10 08:35:45;;;;;;;19.10;9.65;;;;;;;16.51;95.18;101944.66;4976553;28;96995;-28
2023/10/10 08:38:20;;;;;;;22.48;9.82;;;;;;;16.69;95.07;101964.41;4975378;28;100736;-28
2023/10/10 08:40:56;;;;;;;17.70;9.18;;;;;;;16.71;93.98;101954.22;4975271;28;100952;-27
2023/10/10 08:43:31;;;;;;;16.13;8.27;;;;;;;16.71;93.49;101932.34;4975272;28;96871;-28
2023/10/10 08:45:59;;;;;;;20.33;8.90;;;;;;;16.77;93.71;101952.91;4976000;28;96724;-28
2023/10/10 08:48:28;;;;;;;21.05;9.75;;;;;;;16.86;93.95;101945.97;4974492;28;99378;-28
2023/10/10 08:50:55;;;;;;;18.27;9.13;;;;;;;16.98;93.92;101942.34;4958618;28;100923;-28
2023/10/10 08:53:25;;;;;;;16.15;8.88;;;;;;;17.10;93.29;101938.72;4974984;28;96823;-28
2023/10/10 08:55:56;;;;;;;16.77;8.75;;;;;;;17.17;92.65;101936.44;4980779;28;96886;-29
2023/10/10 08:58:22;;;;;;;18.77;8.65;;;;;;;17.27;92.61;101944.84;4996009;28;99954;-28
2023/10/10 09:00:49;;;;;;;21.20;10.23;;;;;;;17.22;92.16;101936.97;4994514;28;100763;-30
2023/10/10 09:03:14;;;;;;;21.02;8.32;;;;;;;17.22;91.86;101933.38;4994794;28;96671;-28
2023/10/10 09:05:40;;;;;;;15.88;7.75;;;;;;;17.28;92.16;101943.84;4996551;28;96792;-28
2023/10/10 09:08:14;;;;;;;15.38;8.07;;;;;;;17.32;92.11;101942.66;4995618;28;98028;-28
2023/10/10 09:10:40;;;;;;;17.13;8.02;;;;;;;17.40;91.86;101932.91;4994400;28;101350;-28
2023/10/10 09:13:09;;;;;;;15.63;8.27;;;;;;;17.49;91.64;101939.56;4995863;28;96472;-27
2023/10/10 09:15:36;;;;;;;18.92;9.02;;;;;;;17.64;91.75;101948.53;4994622;28;96844;-28
2023/10/10 09:18:17;;;;;;;18.15;8.30;;;;;;;17.71;90.78;101936.13;4977881;28;101509;-28
2023/10/10 09:20:46;;;;;;;14.30;7.97;;;;;;;17.74;90.85;101926.78;4995628;28;99152;-28
2023/10/10 09:23:25;;;;;;;15.93;7.70;;;;;;;17.83;89.91;101939.84;4994572;28;96636;-29
2023/10/10 09:26:29;;;;;;;14.73;7.93;;;;;;;17.79;90.19;101930.94;4995837;28;96834;-27
2023/10/10 09:29:03;;;;;;;17.58;8.15;;;;;;;17.86;90.29;101928.66;4995323;28;98715;-28
2023/10/10 09:31:32;;;;;;;18.55;8.70;;;;;;;18.14;90.22;101929.28;4994470;28;100970;-28
2023/10/10 09:34:06;;;;;;;16.75;8.43;;;;;;;18.34;88.68;101939.59;4995831;28;96541;-28
2023/10/10 09:36:39;;;;;;;17.55;8.40;;;;;;;18.57;88.52;101948.81;4994433;28;96811;-28
2023/10/10 09:39:09;;;;;;;19.05;9.52;;;;;;;18.68;87.34;101926.88;4995128;28;97993;-28
2023/10/10 09:49:46;;;;;;;15.13;7.43;;;;;;;19.15;85.45;101942.47;4994897;28;98142;-28
2023/10/10 09:57:58;;;;;;;15.60;8.27;;;;;;;19.42;84.94;101928.34;4995768;28;96782;-28
2023/10/10 10:00:31;;;;;;;18.73;8.38;;;;;;;19.50;84.66;101937.75;4995313;28;98061;-27
2023/10/10 10:03:00;;;;;;;16.10;8.35;;;;;;;19.45;84.67;101934.50;4993717;28;98890;-27
2023/10/10 10:05:28;;;;;;;18.60;8.65;;;;;;;19.41;84.29;101930.25;4994831;28;96576;-27
2023/10/10 10:08:13;;;;;;;15.63;7.93;;;;;;;19.42;83.81;101936.59;4993779;28;96855;-28
2023/10/10 10:10:56;;;;;;;17.10;7.95;;;;;;;19.43;84.22;101935.63;4993472;28;101215;-27
2023/10/10 10:13:37;;;;;;;17.05;7.63;;;;;;;19.62;84.29;101935.84;4993627;28;101285;-29
2023/10/10 10:16:09;;;;;;;16.55;7.75;;;;;;;19.87;81.54;101934.69;4993753;28;96608;-27
2023/10/10 10:18:47;;;;;;;17.13;7.95;;;;;;;20.01;81.50;101925.28;4993109;28;96836;-27
2023/10/10 10:21:32;;;;;;;14.57;7.88;;;;;;;20.13;79.35;101917.88;4993157;28;100944;-27
2023/10/10 10:24:15;;;;;;;14.90;7.53;;;;;;;20.34;80.98;101931.69;4992365;28;101006;-33
2023/10/10 10:26:44;;;;;;;19.92;7.78;;;;;;;20.54;80.38;101928.06;4993235;28;97254;-27
2023/10/10 10:29:26;;;;;;;17.45;7.90;;;;;;;20.84;79.78;101929.19;4994660;28;96861;-28
2023/10/10 10:31:57;;;;;;;14.02;7.75;;;;;;;21.02;79.02;101932.19;4992535;28;101275;-27
2023/10/10 10:34:24;;;;;;;15.10;8.40;;;;;;;21.13;77.85;101923.84;4994435;28;99591;-27
2023/10/10 10:37:07;;;;;;;17.98;8.23;;;;;;;21.33;78.28;101932.22;4993402;28;96675;-28
2023/10/10 10:39:37;;;;;;;21.95;7.15;;;;;;;21.45;78.32;101928.38;4995090;28;96747;-28
2023/10/10 10:42:11;;;;;;;16.60;7.95;;;;;;;21.67;77.47;101927.31;4993652;28;97988;-28
2023/10/10 10:44:58;;;;;;;13.38;7.50;;;;;;;21.79;77.13;101933.59;4991291;28;98847;-27
2023/10/10 10:47:38;;;;;;;15.10;8.43;;;;;;;21.85;75.46;101927.50;4992523;28;96701;-29
2023/10/10 10:50:05;;;;;;;14.90;6.85;;;;;;;21.98;76.32;101925.34;4990866;28;96761;-28
2023/10/10 10:52:48;;;;;;;16.02;7.80;;;;;;;21.95;74.78;101922.88;4990439;28;99843;-27
2023/10/10 10:55:25;;;;;;;17.40;6.97;;;;;;;22.14;74.39;101927.53;4991924;28;99318;-28
2023/10/10 10:58:05;;;;;;;15.27;7.70;;;;;;;22.17;73.13;101929.16;4990569;28;97146;-27
2023/10/10 11:01:07;;;;;;;15.27;7.65;;;;;;;22.37;73.88;101927.31;4992951;28;96923;-29
2023/10/10 11:03:35;;;;;;;13.98;6.72;;;;;;;22.38;73.63;101918.88;4993646;28;98671;-27
2023/10/10 11:06:06;;;;;;;17.70;7.68;;;;;;;22.47;73.30;101926.25;4992956;28;101542;-27
2023/10/10 11:14:09;;;;;;;14.20;6.88;;;;;;;22.63;72.46;101922.06;4992633;28;97819;-28
2023/10/10 11:16:37;;;;;;;14.50;7.22;;;;;;;22.80;72.38;101915.78;4994724;28;97845;-28
2023/10/10 11:21:53;;;;;;;13.13;6.63;;;;;;;22.86;71.87;101903.28;4992216;28;96627;-28
2023/10/10 11:24:46;;;;;;;;;;;;;;;22.86;71.81;101893.09;4994207;28;97972;-28
2023/10/10 11:29:41;;;;;;;17.50;7.55;;;;;;;22.97;71.30;101892.03;4994791;28;96458;-28
2023/10/10 11:32:08;;;;;;;14.63;6.82;;;;;;;22.96;71.31;101884.75;4996410;28;96732;-28
2023/10/10 11:34:56;;;;;;;15.00;6.88;;;;;;;22.88;68.15;101887.38;4995872;28;101630;-29
2023/10/10 11:37:26;;;;;;;19.70;6.85;;;;;;;22.91;70.46;101881.59;4997446;28;97884;-27
2023/10/10 11:40:19;;;;;;;13.57;6.65;;;;;;;22.99;70.13;101876.19;4997446;28;96677;-33
2023/10/10 11:42:47;;;;;;;16.23;6.82;;;;;;;23.09;69.82;101873.41;4998236;28;96603;-28
2023/10/10 11:45:19;;;;;;;11.40;6.20;;;;;;;23.16;68.98;101873.66;4994935;28;101343;-28
2023/10/10 11:47:45;;;;;;;17.23;7.05;;;;;;;23.15;68.79;101861.75;4997195;28;99411;-28
2023/10/10 11:50:12;;;;;;;16.20;6.60;;;;;;;23.14;69.73;101857.22;4995524;28;96854;-28
2023/10/10 11:52:53;;;;;;;18.70;6.97;;;;;;;23.25;67.65;101859.78;4997408;28;96965;-27
2023/10/10 11:55:23;;;;;;;11.50;5.72;;;;;;;23.24;67.25;101844.25;4995610;28;101437;-27
2023/10/10 11:57:49;;;;;;;11.35;5.63;;;;;;;23.29;67.48;101847.41;4995643;28;100934;-29
2023/10/10 12:00:59;;;;;;;15.55;5.95;;;;;;;23.39;68.34;101850.13;4995909;28;96715;-28
2023/10/10 12:03:19;;;;;;;12.85;5.72;;;;;;;23.52;67.82;101852.50;4995603;28;96742;-29
2023/10/10 12:05:50;;;;;;;14.52;5.85;;;;;;;23.52;67.34;101844.22;4996705;28;99791;-28
2023/10/10 12:08:22;;;;;;;;;;;;;;;23.63;67.57;101852.31;4997566;28;99375;-30
2023/10/10 12:10:52;;;;;;;;;;;;;;;23.72;66.94;101845.84;4996216;28;96574;-32
2023/10/10 12:16:01;;;;;;;12.75;5.80;;;;;;;23.65;67.91;101843.88;4993972;28;97298;-28
2023/10/10 12:18:30;;;;;;;12.15;6.05;;;;;;;23.44;66.71;101842.25;4996569;28;99280;-28
2023/10/10 12:20:58;;;;;;;13.35;5.97;;;;;;;23.44;67.53;101845.00;4993252;28;96502;-28
2023/10/10 12:23:24;;;;;;;10.65;5.43;;;;;;;23.53;67.92;101826.63;4976512;28;96753;-30
2023/10/10 12:25:50;;;;;;;13.48;6.70;;;;;;;23.62;67.75;101830.31;4976798;28;97562;-28
2023/10/10 12:28:18;;;;;;;13.27;7.28;;;;;;;23.55;67.47;101827.34;4976515;28;98538;-27
2023/10/10 12:30:44;;;;;;;17.27;6.72;;;;;;;23.52;65.37;101822.97;4975357;28;97983;-28
2023/10/10 12:33:15;;;;;;;11.40;6.60;;;;;;;23.50;66.97;101825.03;4975932;28;96857;-28
2023/10/10 12:35:43;;;;;;;13.65;6.30;;;;;;;23.50;67.15;101826.91;4976377;28;99380;-28
2023/10/10 12:38:09;;;;;;;11.77;5.63;;;;;;;23.34;66.83;101808.25;4976447;28;97423;-28
2023/10/10 12:40:35;;;;;;;10.60;6.10;;;;;;;23.29;68.55;101825.31;4974275;28;96702;-29
2023/10/10 12:43:03;;;;;;;14.05;6.13;;;;;;;23.18;68.45;101832.91;4976557;28;96855;-28
2023/10/10 12:45:29;;;;;;;12.02;5.57;;;;;;;23.00;68.71;101825.44;4974205;28;100894;-28
2023/10/10 12:47:58;;;;;;;13.88;5.65;;;;;;;22.89;69.48;101829.22;4976229;28;99184;-28
2023/10/10 12:50:26;;;;;;;17.92;6.07;;;;;;;22.73;69.43;101828.97;4976451;28;96548;-29
2023/10/10 12:53:07;;;;;;;13.95;5.05;;;;;;;22.44;69.76;101823.53;4975102;28;96909;-27
2023/10/10 12:55:37;;;;;;;11.45;5.43;;;;;;;22.36;69.20;101823.41;4987540;28;98201;-27
2023/10/10 12:58:09;;;;;;;11.68;4.78;;;;;;;22.39;70.00;101829.50;4996238;28;99082;-28
2023/10/10 13:00:36;;;;;;;11.95;4.80;;;;;;;22.51;69.67;101815.53;4996693;28;96905;-27
2023/10/10 13:03:01;;;;;;;10.68;5.03;;;;;;;22.56;69.24;101822.34;4994867;28;96857;-28
2023/10/10 13:05:27;;;;;;;9.05;4.50;;;;;;;22.52;68.99;101818.13;4995188;28;99048;-28
2023/10/10 13:07:58;;;;;;;8.35;4.30;;;;;;;22.37;67.18;101820.50;4996102;28;97240;-27
2023/10/10 13:10:30;;;;;;;;;;;;;;;22.29;68.52;101825.91;4996634;28;96682;-28
2023/10/10 13:12:55;;;;;;;9.97;3.70;;;;;;;22.19;68.33;101825.88;4994991;28;96854;-27
2023/10/10 13:15:30;;;;;;;13.93;4.88;;;;;;;22.07;68.62;101818.75;4995642;28;99231;-28
2023/10/10 13:18:19;;;;;;;7.95;3.72;;;;;;;22.15;68.65;101826.31;4994269;28;100857;-28
2023/10/10 13:20:44;;;;;;;12.77;5.15;;;;;;;22.16;67.39;101822.53;4995988;28;96523;-28
2023/10/10 13:23:10;;;;;;;10.52;4.95;;;;;;;22.05;66.93;101818.91;4995039;28;96826;-28
2023/10/10 13:25:39;;;;;;;11.48;4.45;;;;;;;22.00;67.09;101806.53;4995406;28;99388;-28
2023/10/10 13:28:17;;;;;;;9.98;4.90;;;;;;;21.91;67.37;101807.44;4994164;28;100981;-27
2023/10/10 13:30:43;;;;;;;11.70;4.63;;;;;;;21.75;67.55;101811.63;4995247;28;96452;-28
2023/10/10 13:33:08;;;;;;;10.77;4.85;;;;;;;21.64;68.98;101811.75;4995935;28;96650;-29
2023/10/10 13:35:37;;;;;;;8.88;4.15;;;;;;;21.53;68.74;101804.50;4995334;28;98966;-28
2023/10/10 13:38:05;;;;;;;9.95;4.10;;;;;;;21.49;69.71;101814.06;4994048;28;99474;-28
2023/10/10 13:40:37;;;;;;;10.50;4.22;;;;;;;21.37;68.90;101813.28;4994241;28;96763;-27
2023/10/10 13:43:08;;;;;;;9.38;4.03;;;;;;;21.27;69.98;101809.63;4994065;28;96880;-27
2023/10/10 13:45:34;;;;;;;9.75;4.07;;;;;;;21.17;70.23;101811.50;4994620;28;100001;-27
2023/10/10 13:48:01;;;;;;;16.48;3.95;;;;;;;21.13;70.85;101808.13;4995400;28;98891;-28
2023/10/10 13:50:31;;;;;;;12.13;4.57;;;;;;;21.06;70.50;101800.56;4995464;28;96582;-28
2023/10/10 13:52:58;;;;;;;11.95;4.18;;;;;;;21.07;68.62;101794.03;4993325;28;96756;-28
2023/10/10 13:55:24;;;;;;;11.07;4.28;;;;;;;21.10;69.94;101785.50;4993297;28;101383;-28
2023/10/10 13:57:49;;;;;;;8.65;4.32;;;;;;;21.17;70.05;101795.81;4995281;28;97992;-27
2023/10/10 14:00:33;;;;;;;8.88;4.03;;;;;;;21.26;69.42;101796.88;4994129;28;96561;-27
2023/10/10 14:03:04;;;;;;;9.48;4.05;;;;;;;21.25;69.17;101783.22;4995339;28;96575;-28
2023/10/10 14:05:34;;;;;;;8.70;4.70;;;;;;;21.33;69.16;101792.53;4993715;28;99507;-29
2023/10/10 14:08:07;;;;;;;8.88;4.20;;;;;;;21.35;69.04;101779.47;4993366;28;101079;-28
2023/10/10 14:10:40;;;;;;;8.45;3.95;;;;;;;21.39;68.65;101777.31;4995182;28;96577;-27
2023/10/10 14:13:23;;;;;;;12.07;4.32;;;;;;;21.40;68.47;101779.06;4994150;28;96814;-27
2023/10/10 14:15:56;;;;;;;8.00;4.03;;;;;;;21.36;68.81;101772.09;4978943;28;97976;-28
2023/10/10 14:18:29;;;;;;;10.88;4.22;;;;;;;21.33;69.37;101780.63;4972171;28;101372;-28
2023/10/10 14:20:56;;;;;;;9.00;3.63;;;;;;;21.28;69.31;101767.25;4965738;28;96804;-27
2023/10/10 14:23:26;;;;;;;10.27;4.35;;;;;;;21.23;69.41;101768.72;4975076;28;96759;-28